Time;durP1;ratioP1;P1;durP2;ratioP2;P2;SDS_P1;SDS_P2;PMS_P1;PMS_P2;Temp;Humidity;BMP_temperature;BMP_pressure;BME280_temperature;BME280_humidity;BME280_pressure;Samples;Min_cycle;Max_cycle;Signal;HPM_P1;HPM_P2
2023/09/01 00:01:08;;;;;;;5.38;1.98;;;11.80;99.90;;;;;;5035463;28;20044;-70
2023/09/01 00:03:34;;;;;;;5.07;1.90;;;11.80;99.90;;;;;;5034940;28;20095;-70
2023/09/01 00:06:02;;;;;;;5.47;2.28;;;11.80;99.90;;;;;;5018785;28;20037;-69
2023/09/01 00:08:29;;;;;;;5.00;2.30;;;11.80;99.90;;;;;;5019010;28;20114;-69
2023/09/01 00:10:54;;;;;;;5.85;2.38;;;11.80;99.90;;;;;;5035413;28;20055;-69
2023/09/01 00:13:21;;;;;;;5.25;2.13;;;11.90;99.90;;;;;;5018707;28;20108;-69
2023/09/01 00:15:50;;;;;;;5.70;2.80;;;11.90;99.90;;;;;;5018957;28;20086;-69
2023/09/01 00:18:15;;;;;;;6.32;2.28;;;11.80;99.90;;;;;;5020069;28;20081;-69
2023/09/01 00:20:41;;;;;;;5.47;2.53;;;11.80;99.90;;;;;;5039061;28;20092;-69
2023/09/01 00:23:07;;;;;;;6.35;2.45;;;11.80;99.90;;;;;;5038953;28;20048;-68
2023/09/01 00:25:33;;;;;;;4.32;1.90;;;11.80;99.90;;;;;;5039080;28;20041;-70
2023/09/01 00:27:58;;;;;;;5.65;2.17;;;11.80;99.90;;;;;;5038642;28;20515;-70
2023/09/01 00:30:28;;;;;;;6.97;2.10;;;11.80;99.90;;;;;;5022491;28;20397;-69
2023/09/01 00:32:54;;;;;;;6.65;2.35;;;11.90;99.90;;;;;;5038804;28;20037;-70
2023/09/01 00:35:20;;;;;;;6.53;2.70;;;11.90;99.90;;;;;;5038561;28;20047;-70
2023/09/01 00:37:46;;;;;;;6.63;2.90;;;11.90;99.90;;;;;;5038470;28;20409;-69
2023/09/01 00:40:12;;;;;;;8.10;3.05;;;11.90;99.90;;;;;;5055215;28;20076;-70
2023/09/01 00:42:38;;;;;;;6.65;3.42;;;11.90;99.90;;;;;;5056583;28;20123;-70
2023/09/01 00:45:04;;;;;;;6.35;3.30;;;11.90;99.90;;;;;;5038791;28;20098;-70
2023/09/01 00:47:30;;;;;;;7.00;3.33;;;11.90;99.90;;;;;;5021934;28;20037;-71
2023/09/01 00:49:56;;;;;;;5.97;2.70;;;11.90;99.90;;;;;;5021890;28;20056;-70
2023/09/01 00:52:22;;;;;;;5.38;2.45;;;11.90;99.90;;;;;;5038498;28;20037;-69
2023/09/01 00:54:48;;;;;;;4.88;2.30;;;11.90;99.90;;;;;;5038499;28;20529;-69
2023/09/01 00:57:14;;;;;;;5.63;2.92;;;11.90;99.90;;;;;;5038252;28;20128;-69
2023/09/01 00:59:40;;;;;;;5.47;2.42;;;11.80;99.90;;;;;;5054841;28;20075;-69
2023/09/01 01:02:06;;;;;;;5.47;2.72;;;11.90;99.90;;;;;;5038307;28;20045;-69
2023/09/01 01:04:35;;;;;;;6.47;2.25;;;11.90;99.90;;;;;;5022225;28;20123;-68
2023/09/01 01:07:17;;;;;;;7.00;3.65;;;11.80;99.90;;;;;;5037849;28;20124;-69
2023/09/01 01:10:01;;;;;;;8.05;3.45;;;11.90;99.90;;;;;;5037891;28;20099;-69
2023/09/01 01:12:38;;;;;;;8.25;3.80;;;11.90;99.90;;;;;;5038139;28;20033;-69
2023/09/01 01:15:09;;;;;;;5.65;3.15;;;11.80;99.90;;;;;;5037772;28;20076;-70
2023/09/01 01:17:39;;;;;;;6.70;3.50;;;11.90;99.90;;;;;;5037773;28;20517;-70
2023/09/01 01:20:38;;;;;;;5.70;2.80;;;11.90;99.90;;;;;;5038129;28;20568;-70
2023/09/01 01:23:11;;;;;;;6.53;3.20;;;11.90;99.90;;;;;;4994884;28;20052;-70
2023/09/01 01:25:44;;;;;;;6.53;2.92;;;11.90;99.90;;;;;;5037554;28;20076;-69
2023/09/01 01:28:09;;;;;;;5.60;2.97;;;11.90;99.90;;;;;;5037573;28;20123;-70
2023/09/01 01:30:37;;;;;;;6.47;2.60;;;11.90;99.90;;;;;;5054825;28;20120;-69
2023/09/01 01:33:03;;;;;;;5.43;2.53;;;11.90;99.90;;;;;;5037699;28;20570;-69
2023/09/01 01:35:34;;;;;;;7.70;3.83;;;11.90;99.90;;;;;;5038062;28;20036;-69
2023/09/01 01:38:15;;;;;;;7.00;3.50;;;11.90;99.90;;;;;;5054342;28;20118;-69
2023/09/01 01:40:44;;;;;;;6.00;2.90;;;11.90;99.90;;;;;;5037640;28;20151;-70
2023/09/01 01:43:11;;;;;;;5.80;2.72;;;11.90;99.90;;;;;;5055071;28;20040;-69
2023/09/01 01:45:43;;;;;;;5.90;2.70;;;11.80;99.90;;;;;;5037279;28;20047;-70
2023/09/01 01:48:09;;;;;;;6.28;2.47;;;11.80;99.90;;;;;;5037434;28;20102;-70
2023/09/01 01:50:35;;;;;;;5.80;2.40;;;11.80;99.90;;;;;;5037125;28;20037;-70
2023/09/01 01:53:01;;;;;;;5.80;2.50;;;11.80;99.90;;;;;;5020892;28;20140;-70
2023/09/01 01:55:27;;;;;;;5.68;2.72;;;11.80;99.90;;;;;;5020704;28;20045;-69
2023/09/01 01:57:52;;;;;;;6.57;2.85;;;11.80;99.90;;;;;;5037249;28;20492;-70
2023/09/01 02:00:21;;;;;;;4.60;2.38;;;11.80;99.90;;;;;;5037394;28;20120;-69
2023/09/01 02:02:47;;;;;;;5.13;2.50;;;11.80;99.90;;;;;;5036893;28;20128;-69
2023/09/01 02:05:13;;;;;;;6.25;2.53;;;11.80;99.90;;;;;;5037088;28;20468;-69
2023/09/01 02:07:40;;;;;;;7.32;3.67;;;11.90;99.90;;;;;;5036907;28;20033;-70
2023/09/01 02:10:06;;;;;;;6.55;2.63;;;11.80;99.90;;;;;;5020325;28;20466;-69
2023/09/01 02:12:35;;;;;;;6.28;2.65;;;11.90;99.90;;;;;;5036894;28;20527;-70
2023/09/01 02:15:03;;;;;;;8.63;3.78;;;11.90;99.90;;;;;;5036673;28;20052;-70
2023/09/01 02:17:29;;;;;;;6.75;3.03;;;11.90;99.90;;;;;;5036819;28;20064;-69
2023/09/01 02:19:58;;;;;;;6.05;3.00;;;11.90;99.90;;;;;;5053217;28;20049;-71
2023/09/01 02:22:24;;;;;;;5.68;2.67;;;11.90;99.90;;;;;;5020178;28;20099;-69
2023/09/01 02:24:49;;;;;;;5.47;2.88;;;11.90;99.90;;;;;;5020247;28;20049;-70
2023/09/01 02:27:15;;;;;;;6.55;3.05;;;11.90;99.90;;;;;;5003837;28;20037;-69
2023/09/01 02:29:41;;;;;;;6.53;3.20;;;11.90;99.90;;;;;;5020291;28;20127;-69
2023/09/01 02:32:07;;;;;;;5.72;2.83;;;12.00;99.90;;;;;;5036626;28;20041;-69
2023/09/01 02:34:33;;;;;;;7.20;4.50;;;12.00;99.90;;;;;;5036505;28;20041;-69
2023/09/01 02:36:59;;;;;;;6.30;3.88;;;12.00;99.90;;;;;;5020125;28;20045;-69
2023/09/01 02:39:25;;;;;;;7.10;4.40;;;12.00;99.90;;;;;;5053197;28;20120;-70
2023/09/01 02:41:51;;;;;;;6.53;3.17;;;12.00;99.90;;;;;;5003731;28;20155;-69
2023/09/01 02:44:16;;;;;;;9.85;5.70;;;12.00;99.90;;;;;;5019888;28;20136;-69
2023/09/01 02:46:42;;;;;;;8.63;5.43;;;12.00;99.90;;;;;;5035949;28;20095;-69
2023/09/01 02:49:09;;;;;;;6.53;3.75;;;12.00;99.90;;;;;;5036002;28;20053;-70
2023/09/01 02:51:35;;;;;;;7.18;3.40;;;12.00;99.90;;;;;;5003296;28;20040;-69
2023/09/01 02:54:01;;;;;;;7.00;3.78;;;11.90;99.90;;;;;;5035776;28;20047;-70
2023/09/01 02:56:27;;;;;;;6.28;3.30;;;12.00;99.90;;;;;;5003077;28;20045;-70
2023/09/01 02:58:52;;;;;;;6.47;3.35;;;11.90;99.90;;;;;;5052784;28;20045;-70
2023/09/01 03:01:18;;;;;;;7.07;3.58;;;11.90;99.90;;;;;;5019705;28;20094;-68
2023/09/01 03:03:49;;;;;;;7.43;3.40;;;11.90;99.90;;;;;;5035989;28;20037;-70
2023/09/01 03:06:16;;;;;;;6.90;3.25;;;12.00;99.90;;;;;;5036552;28;20048;-71
2023/09/01 03:08:42;;;;;;;6.88;4.43;;;12.00;99.90;;;;;;5035685;28;20041;-70
2023/09/01 03:11:07;;;;;;;8.18;5.10;;;11.90;99.90;;;;;;5035893;28;20051;-69
2023/09/01 03:13:33;;;;;;;6.72;3.92;;;11.90;99.90;;;;;;5036017;28;20033;-70
2023/09/01 03:15:59;;;;;;;6.38;3.50;;;11.90;99.90;;;;;;5035434;28;20382;-70
2023/09/01 03:18:25;;;;;;;6.25;3.70;;;11.80;99.90;;;;;;5035728;28;20041;-64
2023/09/01 03:20:53;;;;;;;6.22;3.38;;;11.90;99.90;;;;;;5035429;28;20052;-64
2023/09/01 03:23:22;;;;;;;6.10;3.50;;;11.80;99.90;;;;;;5052148;28;20041;-64
2023/09/01 03:25:57;;;;;;;5.55;3.50;;;11.80;99.90;;;;;;5035580;28;20041;-66
2023/09/01 03:28:26;;;;;;;7.70;4.43;;;11.80;99.90;;;;;;5036017;28;20477;-64
2023/09/01 03:30:52;;;;;;;5.75;3.42;;;11.80;99.90;;;;;;5019459;28;20045;-64
2023/09/01 03:33:18;;;;;;;6.20;3.40;;;11.80;99.90;;;;;;5052040;28;20369;-63
2023/09/01 03:35:44;;;;;;;7.05;3.53;;;11.80;99.90;;;;;;5019117;28;20037;-66
2023/09/01 03:38:10;;;;;;;8.85;6.45;;;11.80;99.90;;;;;;5019066;28;20047;-64
2023/09/01 03:40:36;;;;;;;8.50;4.20;;;11.70;99.90;;;;;;5035538;28;20440;-66
2023/09/01 03:43:02;;;;;;;7.07;4.10;;;11.70;99.90;;;;;;5053337;28;20099;-64
2023/09/01 03:45:37;;;;;;;12.43;7.82;;;11.70;99.90;;;;;;5035238;28;20106;-64
2023/09/01 03:48:03;;;;;;;8.35;5.75;;;11.70;99.90;;;;;;5035051;28;20120;-64
2023/09/01 03:50:30;;;;;;;12.70;7.75;;;11.70;99.90;;;;;;5035204;28;20052;-64
2023/09/01 03:52:56;;;;;;;9.68;6.35;;;11.70;99.90;;;;;;5005311;28;20044;-65
2023/09/01 03:55:22;;;;;;;7.65;4.45;;;11.60;99.90;;;;;;5025600;28;20139;-64
2023/09/01 03:57:48;;;;;;;7.63;4.78;;;11.60;99.90;;;;;;5025259;28;20045;-65
2023/09/01 04:00:15;;;;;;;7.03;4.03;;;11.60;99.90;;;;;;5041931;28;20041;-65
2023/09/01 04:02:41;;;;;;;5.90;3.45;;;11.60;99.90;;;;;;5041463;28;20047;-65
2023/09/01 04:05:07;;;;;;;9.20;6.15;;;11.60;99.90;;;;;;5042014;28;20049;-65
2023/09/01 04:07:33;;;;;;;5.55;3.42;;;11.50;99.90;;;;;;5025183;28;20044;-65
2023/09/01 04:10:04;;;;;;;6.43;3.63;;;11.50;99.90;;;;;;5008869;28;20094;-63
2023/09/01 04:12:30;;;;;;;5.80;3.33;;;11.50;99.90;;;;;;5041913;28;20041;-65
2023/09/01 04:14:56;;;;;;;6.20;3.30;;;11.50;99.90;;;;;;5041698;28;20371;-64
2023/09/01 04:17:22;;;;;;;6.30;3.28;;;11.50;99.90;;;;;;5041766;28;20032;-64
2023/09/01 04:19:48;;;;;;;6.22;3.25;;;11.50;99.90;;;;;;5041352;28;20107;-65
2023/09/01 04:22:16;;;;;;;6.78;3.42;;;11.50;99.90;;;;;;5041731;28;20084;-64
2023/09/01 04:24:43;;;;;;;6.07;3.38;;;11.50;99.90;;;;;;5059641;28;20041;-64
2023/09/01 04:27:09;;;;;;;5.90;3.30;;;11.50;99.90;;;;;;5042033;28;20029;-69
2023/09/01 04:29:36;;;;;;;5.70;3.25;;;11.50;99.90;;;;;;5041696;28;20094;-70
2023/09/01 04:32:02;;;;;;;6.72;3.90;;;11.50;99.90;;;;;;5041864;28;20515;-71
2023/09/01 04:34:28;;;;;;;6.18;3.25;;;11.50;99.90;;;;;;5059486;28;20036;-70
2023/09/01 04:36:54;;;;;;;5.68;3.30;;;11.40;99.90;;;;;;5041687;28;20037;-70
2023/09/01 04:39:20;;;;;;;5.88;3.33;;;11.50;99.90;;;;;;5041405;28;20041;-69
2023/09/01 04:41:45;;;;;;;8.18;4.85;;;11.50;99.90;;;;;;5041536;28;20041;-70
2023/09/01 04:44:13;;;;;;;8.63;5.60;;;11.50;99.90;;;;;;5041380;28;20044;-69
2023/09/01 04:46:39;;;;;;;8.15;3.80;;;11.40;99.90;;;;;;5041648;28;20124;-69
2023/09/01 04:49:05;;;;;;;6.40;3.92;;;11.40;99.90;;;;;;5041331;28;20076;-70
2023/09/01 04:51:31;;;;;;;5.53;3.63;;;11.40;99.90;;;;;;5041119;28;20142;-70
2023/09/01 04:53:57;;;;;;;6.10;3.45;;;11.40;99.90;;;;;;5024763;28;20040;-70
2023/09/01 04:56:22;;;;;;;5.93;3.70;;;11.40;99.90;;;;;;5041667;28;20044;-70
2023/09/01 04:58:48;;;;;;;7.28;4.00;;;11.40;99.90;;;;;;5024559;28;20489;-69
2023/09/01 05:01:14;;;;;;;11.27;7.25;;;11.40;99.90;;;;;;5041363;28;20057;-69
2023/09/01 05:03:40;;;;;;;8.98;6.32;;;11.40;99.90;;;;;;5040466;28;20041;-69
2023/09/01 05:06:07;;;;;;;7.13;4.88;;;11.40;99.90;;;;;;5036996;28;20040;-69
2023/09/01 05:08:34;;;;;;;8.60;5.95;;;11.40;99.90;;;;;;5038045;28;20052;-70
2023/09/01 05:11:00;;;;;;;8.70;6.35;;;11.40;99.90;;;;;;5005566;28;20118;-70
2023/09/01 05:13:26;;;;;;;7.22;4.85;;;11.40;99.90;;;;;;5056080;28;20033;-69
2023/09/01 05:15:55;;;;;;;9.07;4.65;;;11.40;99.90;;;;;;5038489;28;20041;-70
2023/09/01 05:18:20;;;;;;;10.40;6.72;;;11.40;99.90;;;;;;5055590;28;20110;-70
2023/09/01 05:20:48;;;;;;;9.93;6.47;;;11.40;99.90;;;;;;5037947;28;20540;-69
2023/09/01 05:23:14;;;;;;;8.57;6.30;;;11.40;99.90;;;;;;5037770;28;20114;-68
2023/09/01 05:25:40;;;;;;;9.55;5.85;;;11.40;99.90;;;;;;5037522;28;20041;-69
2023/09/01 05:28:05;;;;;;;9.70;5.82;;;11.40;99.90;;;;;;5037547;28;20049;-70
2023/09/01 05:30:31;;;;;;;9.63;6.70;;;11.40;99.90;;;;;;5037780;28;20041;-70
2023/09/01 05:32:57;;;;;;;10.30;6.40;;;11.50;99.90;;;;;;5037783;28;20037;-69
2023/09/01 05:35:23;;;;;;;10.07;7.03;;;11.50;99.90;;;;;;5037450;28;20401;-70
2023/09/01 05:37:51;;;;;;;14.32;8.90;;;11.50;99.90;;;;;;5037460;28;20045;-63
2023/09/01 05:40:18;;;;;;;10.45;7.28;;;11.50;99.90;;;;;;5037400;28;20124;-64
2023/09/01 05:42:44;;;;;;;10.52;6.40;;;11.50;99.90;;;;;;5054216;28;20066;-64
2023/09/01 05:45:10;;;;;;;8.65;5.90;;;11.60;99.90;;;;;;5037209;28;20116;-65
2023/09/01 05:47:36;;;;;;;6.97;5.00;;;11.60;99.90;;;;;;5037149;28;20052;-64
2023/09/01 05:50:04;;;;;;;8.57;5.53;;;11.60;99.90;;;;;;5053877;28;20041;-64
2023/09/01 05:52:32;;;;;;;7.65;5.45;;;11.60;99.90;;;;;;5036994;28;20041;-64
2023/09/01 05:54:58;;;;;;;10.40;5.63;;;11.60;99.90;;;;;;5036910;28;20374;-64
2023/09/01 05:57:26;;;;;;;7.85;5.60;;;11.70;99.90;;;;;;5020789;28;20057;-64
2023/09/01 05:59:52;;;;;;;8.38;6.28;;;11.80;99.90;;;;;;5037023;28;20044;-64
2023/09/01 06:02:18;;;;;;;10.18;6.63;;;11.80;99.90;;;;;;5054115;28;20108;-64
2023/09/01 06:04:44;;;;;;;10.70;7.63;;;11.90;99.90;;;;;;5020414;28;20481;-64
2023/09/01 06:07:09;;;;;;;11.07;8.18;;;12.00;99.90;;;;;;5020529;28;20489;-64
2023/09/01 06:09:35;;;;;;;12.93;8.38;;;12.40;99.90;;;;;;5053845;28;20120;-64
2023/09/01 06:12:02;;;;;;;11.10;8.23;;;12.60;99.90;;;;;;5053656;28;20048;-65
2023/09/01 06:14:28;;;;;;;9.75;7.45;;;12.80;99.90;;;;;;5037121;28;20045;-63
2023/09/01 06:16:53;;;;;;;12.68;8.13;;;12.90;99.90;;;;;;5003627;28;20051;-64
2023/09/01 06:19:22;;;;;;;10.32;8.10;;;12.90;99.90;;;;;;5016814;28;20103;-63
2023/09/01 06:21:48;;;;;;;11.88;7.78;;;13.00;99.90;;;;;;5017122;28;20060;-64
2023/09/01 06:24:14;;;;;;;11.10;7.97;;;13.10;99.90;;;;;;5017078;28;20041;-64
2023/09/01 06:26:43;;;;;;;12.63;8.25;;;13.20;99.90;;;;;;5033178;28;20098;-64
2023/09/01 06:29:09;;;;;;;12.75;8.60;;;13.50;99.90;;;;;;5033064;28;20037;-64
2023/09/01 06:31:35;;;;;;;11.98;9.07;;;13.80;99.90;;;;;;5034748;28;20347;-64
2023/09/01 06:34:04;;;;;;;12.52;9.20;;;14.10;99.90;;;;;;5049699;28;20041;-63
2023/09/01 06:36:30;;;;;;;13.63;9.70;;;14.90;99.90;;;;;;5016985;28;20048;-64
2023/09/01 06:38:57;;;;;;;15.98;10.75;;;15.50;99.90;;;;;;5032871;28;20037;-63
2023/09/01 06:41:23;;;;;;;13.95;11.65;;;16.00;99.90;;;;;;5016887;28;20459;-63
2023/09/01 06:43:48;;;;;;;15.73;12.45;;;16.30;99.90;;;;;;5032946;28;20121;-64
2023/09/01 06:46:14;;;;;;;14.07;11.70;;;16.10;99.90;;;;;;5034250;28;20478;-64
2023/09/01 06:48:42;;;;;;;14.38;11.57;;;15.90;99.90;;;;;;5017404;28;20033;-70
2023/09/01 06:51:11;;;;;;;15.02;10.10;;;16.20;99.90;;;;;;5032939;28;20091;-71
2023/09/01 06:53:40;;;;;;;13.60;11.23;;;16.50;99.90;;;;;;5033528;28;20088;-70
2023/09/01 06:56:06;;;;;;;16.85;12.70;;;16.50;99.90;;;;;;5017451;28;20063;-71
2023/09/01 06:58:32;;;;;;;15.30;12.10;;;16.60;99.90;;;;;;5033366;28;20545;-70
2023/09/01 07:01:08;;;;;;;18.20;13.18;;;16.50;99.90;;;;;;5017012;28;20042;-70
2023/09/01 07:03:34;;;;;;;13.43;11.10;;;16.20;99.90;;;;;;5017502;28;20172;-68
2023/09/01 07:06:00;;;;;;;13.52;11.30;;;16.80;99.90;;;;;;5017174;28;20056;-69
2023/09/01 07:08:28;;;;;;;15.68;11.80;;;17.60;99.90;;;;;;5034177;28;20041;-69
2023/09/01 07:11:00;;;;;;;15.05;12.23;;;17.60;99.90;;;;;;5034604;28;20401;-69
2023/09/01 07:13:25;;;;;;;15.07;11.43;;;17.40;99.90;;;;;;5034533;28;20037;-70
2023/09/01 07:15:51;;;;;;;17.38;14.05;;;17.30;99.90;;;;;;5019613;28;20403;-68
2023/09/01 07:18:17;;;;;;;15.02;12.18;;;17.10;99.90;;;;;;5034222;28;20053;-71
2023/09/01 07:20:45;;;;;;;16.98;14.32;;;16.80;99.90;;;;;;5032981;28;20051;-70
2023/09/01 07:23:11;;;;;;;14.88;12.30;;;17.40;99.90;;;;;;5032896;28;20054;-69
2023/09/01 07:25:37;;;;;;;15.65;13.10;;;17.20;99.90;;;;;;5017142;28;20440;-69
2023/09/01 07:28:06;;;;;;;13.82;12.13;;;17.20;99.90;;;;;;5035285;28;20064;-69
2023/09/01 07:30:32;;;;;;;15.63;12.45;;;17.50;99.90;;;;;;5036785;28;20124;-69
2023/09/01 07:32:59;;;;;;;14.60;11.00;;;17.70;99.90;;;;;;5039761;28;20037;-69
2023/09/01 07:35:25;;;;;;;18.80;14.70;;;17.70;99.90;;;;;;5047488;28;20072;-69
2023/09/01 07:37:50;;;;;;;15.80;12.68;;;17.60;99.90;;;;;;5025054;28;20049;-69
2023/09/01 07:40:16;;;;;;;18.88;13.63;;;17.50;99.90;;;;;;5036729;28;20076;-69
2023/09/01 07:42:42;;;;;;;17.13;13.80;;;17.50;99.90;;;;;;5035920;28;20549;-71
2023/09/01 07:45:08;;;;;;;18.40;14.85;;;17.30;99.90;;;;;;5019710;28;20120;-68
2023/09/01 07:47:34;;;;;;;16.38;14.68;;;17.10;99.90;;;;;;5036842;28;20054;-68
2023/09/01 07:50:00;;;;;;;19.88;16.05;;;17.20;99.90;;;;;;5037778;28;20049;-70
2023/09/01 07:52:26;;;;;;;19.30;17.00;;;17.10;99.90;;;;;;5037005;28;20124;-69
2023/09/01 07:54:51;;;;;;;18.13;15.27;;;17.10;99.90;;;;;;5035157;28;20092;-70
2023/09/01 07:57:17;;;;;;;20.67;17.60;;;16.90;99.90;;;;;;5034034;28;20052;-64
2023/09/01 07:59:43;;;;;;;18.90;16.25;;;16.90;99.90;;;;;;5032060;28;20041;-65
2023/09/01 08:02:09;;;;;;;18.05;15.50;;;16.70;99.90;;;;;;5032983;28;20037;-63
2023/09/01 08:04:35;;;;;;;21.33;17.25;;;16.50;99.90;;;;;;5032084;28;20041;-63
2023/09/01 08:07:00;;;;;;;20.30;17.10;;;16.40;99.90;;;;;;5048393;28;20052;-64
2023/09/01 08:09:26;;;;;;;18.15;14.85;;;16.60;99.90;;;;;;5031695;28;20049;-64
2023/09/01 08:11:52;;;;;;;20.40;16.42;;;16.70;99.90;;;;;;5015175;28;20041;-64
2023/09/01 08:14:18;;;;;;;17.52;15.32;;;16.90;99.90;;;;;;5031918;28;20124;-64
2023/09/01 08:16:44;;;;;;;19.05;16.17;;;16.90;99.90;;;;;;5015483;28;20049;-64
2023/09/01 08:19:10;;;;;;;19.45;16.65;;;17.00;99.90;;;;;;5031570;28;20054;-63
2023/09/01 08:21:36;;;;;;;18.30;16.13;;;17.00;99.90;;;;;;5016914;28;20052;-64
2023/09/01 08:24:02;;;;;;;18.58;15.65;;;17.20;99.90;;;;;;5017863;28;20056;-63
2023/09/01 08:26:28;;;;;;;19.67;16.42;;;17.30;99.90;;;;;;5032587;28;20045;-64
2023/09/01 08:28:54;;;;;;;19.33;16.05;;;17.50;99.90;;;;;;5031859;28;20075;-64
2023/09/01 08:31:20;;;;;;;18.15;14.57;;;17.50;99.90;;;;;;5031806;28;20111;-65
2023/09/01 08:33:53;;;;;;;20.00;16.02;;;17.60;99.90;;;;;;5031601;28;20041;-65
2023/09/01 08:36:21;;;;;;;19.30;16.00;;;17.60;99.90;;;;;;5031411;28;20048;-64
2023/09/01 08:38:47;;;;;;;19.85;16.42;;;17.70;99.90;;;;;;5032522;28;20505;-64
2023/09/01 08:41:13;;;;;;;21.08;16.73;;;17.80;99.90;;;;;;5036490;28;20045;-64
2023/09/01 08:43:39;;;;;;;18.17;15.80;;;18.00;99.90;;;;;;5035329;28;20079;-64
2023/09/01 08:46:05;;;;;;;19.58;16.80;;;18.10;99.90;;;;;;5035240;28;20050;-64
2023/09/01 08:48:34;;;;;;;19.67;17.48;;;18.20;99.90;;;;;;5034943;28;20077;-63
2023/09/01 08:51:05;;;;;;;21.38;16.17;;;18.20;99.90;;;;;;5035025;28;20068;-64
2023/09/01 08:53:32;;;;;;;19.30;16.20;;;18.10;99.90;;;;;;5036557;28;20494;-64
2023/09/01 08:55:58;;;;;;;20.25;17.95;;;18.00;99.90;;;;;;5035057;28;20045;-63
2023/09/01 08:58:27;;;;;;;22.38;17.90;;;18.10;99.90;;;;;;5034901;28;20048;-64
2023/09/01 09:00:54;;;;;;;20.90;17.40;;;18.10;99.90;;;;;;5035170;28;20038;-63
2023/09/01 09:03:21;;;;;;;21.98;19.67;;;18.30;99.90;;;;;;5034707;28;20052;-64
2023/09/01 09:05:51;;;;;;;22.08;19.65;;;18.50;99.90;;;;;;5035029;28;20081;-64
2023/09/01 09:08:17;;;;;;;24.60;20.92;;;18.50;99.90;;;;;;5018984;28;20041;-69
2023/09/01 09:10:48;;;;;;;26.17;23.38;;;18.50;99.90;;;;;;5034964;28;20566;-70
2023/09/01 09:13:28;;;;;;;23.13;20.63;;;18.40;99.90;;;;;;5034794;28;20048;-70
2023/09/01 09:16:14;;;;;;;25.08;22.08;;;18.40;99.90;;;;;;5035016;28;20524;-71
2023/09/01 09:18:42;;;;;;;28.85;23.02;;;18.40;99.90;;;;;;5053999;28;20130;-70
2023/09/01 09:21:32;;;;;;;23.95;20.27;;;18.30;99.90;;;;;;5037841;28;20053;-70
2023/09/01 09:24:05;;;;;;;24.35;20.88;;;18.50;99.90;;;;;;5038504;28;20501;-70
2023/09/01 09:26:38;;;;;;;27.23;21.70;;;18.70;99.90;;;;;;5038142;28;20041;-71
2023/09/01 09:29:11;;;;;;;23.45;20.40;;;18.80;99.90;;;;;;5005603;28;20504;-70
2023/09/01 09:31:41;;;;;;;23.55;19.15;;;19.00;99.90;;;;;;5038207;28;20063;-71
2023/09/01 09:34:22;;;;;;;21.67;19.30;;;19.20;99.90;;;;;;5038100;28;20033;-71
2023/09/01 09:36:51;;;;;;;22.45;18.42;;;19.30;99.90;;;;;;5055845;28;20046;-71
2023/09/01 09:39:27;;;;;;;25.15;20.67;;;19.50;99.90;;;;;;5037590;28;20048;-71
2023/09/01 09:41:54;;;;;;;25.08;20.08;;;19.60;99.90;;;;;;5037790;28;20055;-70
2023/09/01 09:44:33;;;;;;;21.77;19.35;;;19.80;99.90;;;;;;5037625;28;20044;-70
2023/09/01 09:47:10;;;;;;;20.30;17.25;;;19.80;99.90;;;;;;5037947;28;20041;-70
2023/09/01 09:49:38;;;;;;;20.05;16.60;;;19.90;99.90;;;;;;5038011;28;20412;-70
2023/09/01 09:52:11;;;;;;;21.05;16.33;;;19.80;99.90;;;;;;5037205;28;20381;-70
2023/09/01 09:54:39;;;;;;;19.60;16.48;;;19.90;99.90;;;;;;5037659;28;20049;-70
2023/09/01 09:57:13;;;;;;;20.20;16.30;;;19.70;99.90;;;;;;5037454;28;20049;-72
2023/09/01 09:59:48;;;;;;;19.02;15.65;;;19.80;99.90;;;;;;5037289;28;20170;-71
2023/09/01 10:02:34;;;;;;;21.25;16.58;;;19.70;99.90;;;;;;5001407;28;20049;-70
2023/09/01 10:05:01;;;;;;;21.73;16.88;;;19.60;99.90;;;;;;5035128;28;20045;-71
2023/09/01 10:07:28;;;;;;;19.15;14.88;;;19.50;99.90;;;;;;5001316;28;20042;-70
2023/09/01 10:09:55;;;;;;;19.17;14.02;;;19.50;99.90;;;;;;5017466;28;20074;-70
2023/09/01 10:12:21;;;;;;;18.63;13.02;;;19.50;99.90;;;;;;5000829;28;20043;-70
2023/09/01 10:14:49;;;;;;;16.75;12.25;;;19.50;99.90;;;;;;5001382;28;20030;-70
2023/09/01 10:17:33;;;;;;;19.65;11.88;;;19.50;99.90;;;;;;5031552;28;20528;-70
2023/09/01 10:20:00;;;;;;;17.70;12.98;;;19.50;99.90;;;;;;5013692;28;20132;-70
2023/09/01 10:22:26;;;;;;;20.15;12.95;;;19.50;99.90;;;;;;4997800;28;20049;-70
2023/09/01 10:25:15;;;;;;;16.30;10.50;;;19.50;99.90;;;;;;5013908;28;20048;-70
2023/09/01 10:28:13;;;;;;;14.57;9.77;;;19.40;99.90;;;;;;5013485;28;20402;-71
2023/09/01 10:30:44;;;;;;;18.38;11.88;;;19.50;99.90;;;;;;5013884;28;20034;-70
2023/09/01 10:33:13;;;;;;;17.20;11.70;;;19.50;99.90;;;;;;5013846;28;20044;-70
2023/09/01 10:35:53;;;;;;;15.98;10.57;;;19.60;99.90;;;;;;5013587;28;20042;-70
2023/09/01 10:38:34;;;;;;;15.68;10.13;;;19.70;99.90;;;;;;5013689;28;20042;-71
2023/09/01 10:41:00;;;;;;;17.50;11.27;;;19.80;99.90;;;;;;5014854;28;20044;-71
2023/09/01 10:43:35;;;;;;;15.43;10.27;;;19.90;99.90;;;;;;4996911;28;20046;-70
2023/09/01 10:46:16;;;;;;;17.05;10.82;;;19.90;99.90;;;;;;5013200;28;20046;-70
2023/09/01 10:48:57;;;;;;;16.17;11.13;;;19.90;99.90;;;;;;5013249;28;20406;-71
2023/09/01 10:51:28;;;;;;;15.75;10.63;;;19.80;99.90;;;;;;5013127;28;20046;-70
2023/09/01 10:54:01;;;;;;;15.40;10.73;;;19.70;99.90;;;;;;5013203;28;20046;-69
2023/09/01 10:56:33;;;;;;;15.10;10.02;;;19.40;99.90;;;;;;5013400;28;20501;-70
2023/09/01 10:59:05;;;;;;;16.10;10.95;;;19.30;99.90;;;;;;4997046;28;20038;-70
2023/09/01 11:01:37;;;;;;;17.25;9.98;;;19.30;99.90;;;;;;4996659;28;20070;-70
2023/09/01 11:04:21;;;;;;;17.95;10.52;;;19.10;99.90;;;;;;5012255;28;20052;-71
2023/09/01 11:06:56;;;;;;;17.10;10.88;;;19.10;99.90;;;;;;5012688;28;20050;-68
2023/09/01 11:09:35;;;;;;;16.65;10.43;;;19.10;99.90;;;;;;5012809;28;20120;-71
2023/09/01 11:12:02;;;;;;;15.38;9.85;;;19.00;99.90;;;;;;5012984;28;20042;-70
2023/09/01 11:14:31;;;;;;;16.13;10.20;;;18.90;99.90;;;;;;5013046;28;20128;-70
2023/09/01 11:17:03;;;;;;;15.45;10.18;;;19.00;99.90;;;;;;4996429;28;20041;-70
2023/09/01 11:19:47;;;;;;;15.20;10.38;;;19.00;99.90;;;;;;5013824;28;20057;-70
2023/09/01 11:22:14;;;;;;;16.88;9.98;;;19.00;99.90;;;;;;4997829;28;20056;-70
2023/09/01 11:24:44;;;;;;;16.30;9.73;;;19.00;99.90;;;;;;5012609;28;20049;-70
2023/09/01 11:27:10;;;;;;;15.30;10.07;;;19.00;99.90;;;;;;5017093;28;20045;-64
2023/09/01 11:29:39;;;;;;;18.25;11.20;;;19.00;99.90;;;;;;5032040;28;20045;-64
2023/09/01 11:32:05;;;;;;;13.95;9.50;;;18.90;99.90;;;;;;5015736;28;20102;-64
2023/09/01 11:34:38;;;;;;;14.02;9.63;;;18.90;99.90;;;;;;5032065;28;20037;-64
2023/09/01 11:37:04;;;;;;;14.07;8.60;;;18.90;99.90;;;;;;5031859;28;20041;-65
2023/09/01 11:39:29;;;;;;;12.95;8.60;;;19.00;99.90;;;;;;5031902;28;20038;-65
2023/09/01 11:41:56;;;;;;;14.10;8.88;;;19.00;99.90;;;;;;5015652;28;20041;-65
2023/09/01 11:44:22;;;;;;;15.77;8.75;;;18.90;99.90;;;;;;5015619;28;20041;-65
2023/09/01 11:46:48;;;;;;;15.23;8.85;;;18.90;99.90;;;;;;5033063;28;20155;-64
2023/09/01 11:49:16;;;;;;;13.02;8.43;;;18.80;99.90;;;;;;4999162;28;20037;-64
2023/09/01 11:51:42;;;;;;;14.85;8.80;;;18.90;99.90;;;;;;5031814;28;20042;-64
2023/09/01 11:54:09;;;;;;;13.65;8.38;;;19.00;99.90;;;;;;4999316;28;20045;-64
2023/09/01 11:56:35;;;;;;;15.55;8.25;;;19.00;99.90;;;;;;5032097;28;20555;-64
2023/09/01 11:59:01;;;;;;;14.80;8.93;;;19.10;99.90;;;;;;5048639;28;20049;-63
2023/09/01 12:01:38;;;;;;;17.27;9.55;;;19.00;99.90;;;;;;5015353;28;20037;-64
2023/09/01 12:04:07;;;;;;;12.40;8.73;;;18.80;99.90;;;;;;5015586;28;20548;-64
2023/09/01 12:06:46;;;;;;;15.05;7.63;;;18.80;99.90;;;;;;5031592;28;20099;-65
2023/09/01 12:09:16;;;;;;;14.18;7.80;;;18.90;99.90;;;;;;5032406;28;20041;-64
2023/09/01 12:12:00;;;;;;;13.90;7.50;;;18.80;99.90;;;;;;5031840;28;20041;-64
2023/09/01 12:14:27;;;;;;;13.38;7.68;;;18.90;99.90;;;;;;5033776;28;20038;-63
2023/09/01 12:16:53;;;;;;;11.82;7.38;;;18.80;99.90;;;;;;5035600;28;20080;-64
2023/09/01 12:19:24;;;;;;;11.60;6.82;;;18.80;99.90;;;;;;5020974;28;20048;-64
2023/09/01 12:21:58;;;;;;;13.17;7.63;;;19.10;99.90;;;;;;5022798;28;20155;-64
2023/09/01 12:24:23;;;;;;;14.27;7.55;;;19.30;99.90;;;;;;5039024;28;20731;-64
2023/09/01 12:26:49;;;;;;;12.60;8.23;;;19.50;99.90;;;;;;5056581;28;20083;-64
2023/09/01 12:29:16;;;;;;;14.35;8.25;;;19.60;99.90;;;;;;5038691;28;20048;-63
2023/09/01 12:31:45;;;;;;;14.52;8.15;;;19.60;99.90;;;;;;5038564;28;20037;-64
2023/09/01 12:34:11;;;;;;;14.93;8.18;;;19.70;99.90;;;;;;5022235;28;20072;-65
2023/09/01 12:36:37;;;;;;;12.82;7.22;;;19.50;99.90;;;;;;5038921;28;20087;-69
2023/09/01 12:39:03;;;;;;;14.45;7.40;;;19.60;99.90;;;;;;5038577;28;20037;-64
2023/09/01 12:41:29;;;;;;;12.23;7.13;;;19.50;99.90;;;;;;5022040;28;20145;-64
2023/09/01 12:43:55;;;;;;;13.00;6.30;;;19.60;99.90;;;;;;5022121;28;20196;-65